Terminal Aerodrome Forecast
Issued by NWS

Home | Current Version | Previous Version | Text Only | Print | Product List | Glossary On
Versions: 1 2 3 4 5 6 7 8 9 10 11 12 13 14 15 16 17 18 19 20 21 22 23 24 25 26 27 28 29 30
000
FTUS43 KLSX 051125
TAFUIN
TAF
KUIN 051125Z 0512/0612 12005KT 1SM BR OVC003
      TEMPO 0512/0515 1/4SM FG VV001
     FM051500 17009KT 1/2SM FG BKN001
     FM051700 17010KT 3SM BR BKN010
     FM051800 17010KT P6SM SCT050
     FM060800 VRB03KT P6SM BKN015=

USA.gov is the U.S. government's official web portal to all federal, state and local government web resources and services.